Disclaimer

Please do not use the information listed here in-flight or in-navigation, as they are not provided to us by the airports but are provided by volunteers, so they might be outdated.

Search


Regions


Airport information page

Radio informations:
Tower (TWR) - 122.6 MHz
Ground (GND) - 121.9 MHz
Automatic Terminal Information Service (ATIS) - 127.65 MHz
Approach (APP) - 122.6 MHz

Airport informations:
Latitude: 02° 15' 41.77" N
Longitude: 111° 59' 07.16" E
Elevation: 122 feet - 37 meters
Operating hours: Remarks
Operating agency: Civil government, landing fees and diplomatic clearance may be required
Timezone: UTC+8
Fuel: N/A

Runway information:
13/31 - 9036 x 148 feet< - >2754 x 45 meters

Recent METARs:
WBGS 201500Z 00000KT 9999 FEW018 BKN150 24/24 Q1012
WBGS 201600Z 00000KT 9999 FEW018 BKN150 24/24 Q1012
WBGS 201600Z 00000KT 9999 FEW018 BKN150 24/24 Q1012

Airport on the map: